Terminal Aerodrome Forecast
Issued by NWS Burlington, VT

Home | Current Version | Previous Version | Text Only | Print | Product List | Glossary On
Versions: 1 2 3 4 5 6 7 8 9 10 11 12 13
000
FTUS41 KBTV 180520
TAFBTV
TAF
KBTV 180520Z 1806/1906 VRB03KT P6SM SCT050 BKN090
     FM181500 19007KT P6SM SCT050
     FM181700 28012G20KT P6SM VCSH BKN050
     FM182000 32015G25KT P6SM BKN050
     FM190300 32007KT P6SM BKN035=

USA.gov is the U.S. government's official web portal to all federal, state and local government web resources and services.